createdAt,value
2022-09-11T00:05:01.267Z,100040.34
2022-09-11T00:10:02.621Z,100042.38
2022-09-11T00:15:04.349Z,100042.84
2022-09-11T00:20:05.974Z,100039.69
2022-09-11T00:25:07.657Z,100047.88
2022-09-11T00:30:09.250Z,100056.47
2022-09-11T00:35:10.577Z,100060.31
2022-09-11T00:40:11.859Z,100069.56
2022-09-11T00:45:23.637Z,100070.94
2022-09-11T00:50:29.070Z,100085.03
2022-09-11T00:55:35.320Z,100092.91
2022-09-11T01:00:39.493Z,100089.59
2022-09-11T01:05:43.324Z,100099.47
2022-09-11T01:11:21.595Z,100091.06
2022-09-11T01:16:38.677Z,100097.47
2022-09-11T01:22:11.537Z,100107.56
2022-09-11T01:27:31.289Z,100103.84
2022-09-11T01:32:41.243Z,100108.22
2022-09-11T01:37:54.186Z,100109.41
2022-09-11T01:43:06.100Z,100111.25
2022-09-11T01:48:09.162Z,100112.09
2022-09-11T01:53:13.664Z,100111.09
2022-09-11T01:58:22.549Z,100109.41
2022-09-11T02:03:36.573Z,100106.38
2022-09-11T02:08:45.094Z,100118.31
2022-09-11T02:13:49.089Z,100119.00
2022-09-11T02:18:58.761Z,100115.63
2022-09-11T02:24:01.377Z,100121.16
2022-09-11T02:29:02.717Z,100131.03
2022-09-11T02:34:04.443Z,100143.31
2022-09-11T02:39:46.644Z,100146.00
2022-09-11T02:45:26.453Z,100148.69
2022-09-11T02:50:58.733Z,100159.63
2022-09-11T02:56:11.938Z,100162.63
2022-09-11T03:01:13.379Z,100161.28
2022-09-11T03:06:22.737Z,100170.69
2022-09-11T03:11:24.024Z,100167.69
2022-09-11T03:16:25.606Z,100174.72
2022-09-11T03:21:26.957Z,100177.41
2022-09-11T03:26:28.999Z,100181.41
2022-09-11T03:31:30.280Z,100193.53
2022-09-11T03:36:34.088Z,100194.84
2022-09-11T03:41:35.602Z,100195.19
2022-09-11T03:46:36.974Z,100206.09
2022-09-11T03:51:38.242Z,100205.94
2022-09-11T03:56:39.516Z,100214.53
2022-09-11T04:01:40.866Z,100211.97
2022-09-11T04:06:42.175Z,100222.75
2022-09-11T04:11:43.455Z,100233.84
2022-09-11T04:16:44.753Z,100232.53
2022-09-11T04:21:46.019Z,100221.41
2022-09-11T04:26:47.601Z,100225.94
2022-09-11T04:31:48.968Z,100220.75
2022-09-11T04:36:50.294Z,100220.06
2022-09-11T04:41:51.546Z,100223.75
2022-09-11T04:46:52.884Z,100228.81
2022-09-11T04:51:54.978Z,100224.59
2022-09-11T04:56:56.237Z,100227.44
2022-09-11T05:01:57.735Z,100241.91
2022-09-11T05:06:59.124Z,100254.00
2022-09-11T05:12:02.030Z,100263.09
2022-09-11T05:17:03.659Z,100266.31
2022-09-11T05:22:04.950Z,100258.75
2022-09-11T05:27:07.342Z,100268.50
2022-09-11T05:32:08.635Z,100272.50
2022-09-11T05:37:10.478Z,100282.28
2022-09-11T05:42:11.869Z,100278.22
2022-09-11T05:47:14.207Z,100295.09
2022-09-11T05:52:15.823Z,100301.66
2022-09-11T05:57:17.185Z,100308.03
2022-09-11T06:02:18.497Z,100303.00
2022-09-11T06:07:19.825Z,100306.84
2022-09-11T06:12:21.081Z,100312.59
2022-09-11T06:17:23.167Z,100322.31
2022-09-11T06:22:24.465Z,100326.69
2022-09-11T06:27:25.934Z,100330.03
2022-09-11T06:32:27.229Z,100333.59
2022-09-11T06:37:28.985Z,100345.19
2022-09-11T06:42:30.609Z,100352.97
2022-09-11T06:47:32.901Z,100353.69
2022-09-11T06:52:35.207Z,100351.97
2022-09-11T06:57:41.197Z,100362.44
2022-09-11T07:02:43.296Z,100354.06
2022-09-11T07:07:45.288Z,100357.78
2022-09-11T07:12:49.896Z,100358.44
2022-09-11T07:17:51.390Z,100357.59
2022-09-11T07:22:52.831Z,100369.22
2022-09-11T07:27:54.829Z,100371.91
2022-09-11T07:32:56.374Z,100376.91
2022-09-11T07:37:58.639Z,100377.56
2022-09-11T07:43:00.028Z,100389.25
2022-09-11T07:48:02.040Z,100382.44
2022-09-11T07:53:03.302Z,100388.03
2022-09-11T07:58:04.663Z,100392.50
2022-09-11T08:03:05.947Z,100400.53
2022-09-11T08:08:07.226Z,100402.41
2022-09-11T08:13:09.716Z,100403.22
2022-09-11T08:18:11.037Z,100400.72
2022-09-11T08:23:12.432Z,100400.69
2022-09-11T08:28:13.717Z,100398.84
2022-09-11T08:33:14.975Z,100393.56
2022-09-11T08:38:16.328Z,100405.31
2022-09-11T08:43:26.515Z,100411.38
2022-09-11T08:48:42.157Z,100420.56
2022-09-11T08:53:45.451Z,100417.50
2022-09-11T08:59:09.013Z,100412.25
2022-09-11T09:04:41.271Z,100414.31
2022-09-11T09:09:50.319Z,100422.16
2022-09-11T09:15:19.653Z,100427.72
2022-09-11T09:20:35.418Z,100438.16
2022-09-11T09:25:39.963Z,100434.44
2022-09-11T09:30:54.950Z,100440.41
2022-09-11T09:35:57.754Z,100432.03
2022-09-11T09:41:06.310Z,100436.47
2022-09-11T09:46:17.159Z,100447.91
2022-09-11T09:51:18.533Z,100447.00
2022-09-11T09:56:23.583Z,100444.97
2022-09-11T10:01:47.005Z,100449.00
2022-09-11T10:06:51.968Z,100449.06
2022-09-11T10:12:07.208Z,100452.72
2022-09-11T10:17:20.527Z,100449.19
2022-09-11T10:22:30.865Z,100439.84
2022-09-11T10:27:38.878Z,100443.34
2022-09-11T10:32:42.351Z,100427.50
2022-09-11T10:37:43.989Z,100424.06
2022-09-11T10:42:52.314Z,100421.13
2022-09-11T10:47:53.643Z,100410.69
2022-09-11T10:53:09.429Z,100405.88
2022-09-11T10:58:18.774Z,100408.97
2022-09-11T11:03:26.270Z,100406.31
2022-09-11T11:08:46.239Z,100417.59
2022-09-11T11:14:24.591Z,100417.66
2022-09-11T11:19:59.701Z,100424.16
2022-09-11T11:25:14.667Z,100430.75
2022-09-11T11:30:19.698Z,100430.91
2022-09-11T11:35:35.447Z,100426.81
2022-09-11T11:40:43.869Z,100423.06
2022-09-11T11:45:49.649Z,100437.72
2022-09-11T11:50:55.243Z,100431.13
2022-09-11T11:56:18.871Z,100425.41
2022-09-11T12:01:40.831Z,100421.84
2022-09-11T12:06:42.650Z,100423.59
2022-09-11T12:11:47.778Z,100418.34
2022-09-11T12:16:49.190Z,100410.13
2022-09-11T12:21:53.434Z,100407.53
2022-09-11T12:27:49.693Z,100402.94
2022-09-11T12:32:55.873Z,100403.38
2022-09-11T12:38:06.139Z,100406.19
2022-09-11T12:43:26.193Z,100411.09
2022-09-11T12:48:41.145Z,100407.13
2022-09-11T12:53:47.047Z,100396.16
2022-09-11T12:59:00.711Z,100398.94
2022-09-11T13:04:06.787Z,100395.31
2022-09-11T13:09:33.193Z,100385.63
2022-09-11T13:14:34.456Z,100387.13
2022-09-11T13:19:37.336Z,100375.78
2022-09-11T13:24:38.659Z,100370.66
2022-09-11T13:29:40.612Z,100369.91
2022-09-11T13:34:48.997Z,100364.06
2022-09-11T13:39:50.349Z,100349.44
2022-09-11T13:44:56.097Z,100355.53
2022-09-11T13:50:01.413Z,100359.16
2022-09-11T13:55:10.304Z,100356.09
2022-09-11T14:00:37.415Z,100337.91
2022-09-11T14:05:49.085Z,100340.31
2022-09-11T14:10:54.589Z,100336.28
2022-09-11T14:16:01.878Z,100332.44
2022-09-11T14:21:13.329Z,100332.53
2022-09-11T14:26:21.065Z,100336.06
2022-09-11T14:31:30.320Z,100328.91
2022-09-11T14:36:31.723Z,100324.31
2022-09-11T14:41:33.134Z,100330.78
2022-09-11T14:46:34.396Z,100320.28
2022-09-11T14:51:37.795Z,100326.91
2022-09-11T14:56:40.518Z,100317.19
2022-09-11T15:01:42.043Z,100318.09
2022-09-11T15:06:43.600Z,100313.31
2022-09-11T15:11:45.101Z,100307.88
2022-09-11T15:16:46.478Z,100298.03
2022-09-11T15:21:47.742Z,100307.69
2022-09-11T15:26:49.371Z,100306.59
2022-09-11T15:31:53.366Z,100301.34
2022-09-11T15:36:54.692Z,100299.88
2022-09-11T15:41:56.541Z,100292.78
2022-09-11T15:46:58.833Z,100293.63
2022-09-11T15:52:00.283Z,100276.72
2022-09-11T15:57:01.570Z,100278.56
2022-09-11T16:02:02.931Z,100281.09
2022-09-11T16:07:04.693Z,100283.59
2022-09-11T16:12:06.408Z,100287.53
2022-09-11T16:17:08.192Z,100288.94
2022-09-11T16:22:09.913Z,100293.44
2022-09-11T16:27:11.302Z,100290.53
2022-09-11T16:32:12.552Z,100281.66
2022-09-11T16:37:14.247Z,100281.66
2022-09-11T16:42:15.913Z,100282.41
2022-09-11T16:47:17.810Z,100293.56
2022-09-11T16:52:19.744Z,100292.88
2022-09-11T16:57:20.997Z,100281.75
2022-09-11T17:02:22.361Z,100276.06
2022-09-11T17:07:23.808Z,100281.47
2022-09-11T17:12:25.172Z,100284.50
2022-09-11T17:17:26.590Z,100280.03
2022-09-11T17:22:29.539Z,100278.09
2022-09-11T17:27:31.068Z,100279.25
2022-09-11T17:32:32.365Z,100279.97
2022-09-11T17:37:33.639Z,100279.25
2022-09-11T17:42:35.533Z,100283.13
2022-09-11T17:47:36.865Z,100292.59
2022-09-11T17:52:38.204Z,100292.13
2022-09-11T17:57:40.617Z,100294.66
2022-09-11T18:02:41.926Z,100291.44
2022-09-11T18:07:43.172Z,100300.63
2022-09-11T18:12:44.435Z,100297.13
2022-09-11T18:17:47.943Z,100301.63
2022-09-11T18:22:50.141Z,100304.69
2022-09-11T18:27:51.419Z,100299.09
2022-09-11T18:32:52.743Z,100307.22
2022-09-11T18:37:54.336Z,100312.34
2022-09-11T18:42:55.635Z,100306.81
2022-09-11T18:47:57.052Z,100317.56
2022-09-11T18:53:00.075Z,100321.28
2022-09-11T18:58:01.901Z,100326.31
2022-09-11T19:03:03.500Z,100327.03
2022-09-11T19:08:04.765Z,100330.22
2022-09-11T19:13:06.026Z,100330.84
2022-09-11T19:18:07.319Z,100337.38
2022-09-11T19:23:09.572Z,100335.41
2022-09-11T19:28:11.796Z,100335.44
2022-09-11T19:33:13.057Z,100335.00
2022-09-11T19:38:14.336Z,100351.03
2022-09-11T19:43:15.720Z,100350.25
2022-09-11T19:48:18.310Z,100354.16
2022-09-11T19:53:19.765Z,100346.44
2022-09-11T19:58:24.053Z,100342.75
2022-09-11T20:03:25.507Z,100343.66
2022-09-11T20:08:26.807Z,100338.47
2022-09-11T20:13:28.139Z,100342.22
2022-09-11T20:18:29.598Z,100338.38
2022-09-11T20:23:31.342Z,100350.69
2022-09-11T20:28:32.650Z,100348.44
2022-09-11T20:33:34.219Z,100349.44
2022-09-11T20:38:35.788Z,100356.00
2022-09-11T20:43:37.149Z,100355.59
2022-09-11T20:48:38.457Z,100350.69
2022-09-11T20:53:41.769Z,100354.28
2022-09-11T20:58:44.245Z,100350.44
2022-09-11T21:03:48.598Z,100347.97
2022-09-11T21:08:51.389Z,100351.31
2022-09-11T21:13:52.932Z,100350.22
2022-09-11T21:18:56.797Z,100345.09
2022-09-11T21:24:03.796Z,100334.66
2022-09-11T21:29:08.037Z,100340.78
2022-09-11T21:34:10.040Z,100341.28
2022-09-11T21:39:11.718Z,100332.91
2022-09-11T21:44:13.093Z,100339.81
2022-09-11T21:49:14.335Z,100329.91
2022-09-11T21:54:15.625Z,100331.22
2022-09-11T21:59:16.927Z,100339.88
2022-09-11T22:04:18.209Z,100326.38
2022-09-11T22:09:20.672Z,100328.41
2022-09-11T22:14:22.484Z,100329.94
2022-09-11T22:19:23.902Z,100330.31
2022-09-11T22:24:25.166Z,100332.16
2022-09-11T22:29:26.474Z,100329.81
2022-09-11T22:34:27.801Z,100321.44
2022-09-11T22:39:31.598Z,100315.69
2022-09-11T22:44:32.788Z,100310.69
2022-09-11T22:49:34.111Z,100318.72
2022-09-11T22:54:35.417Z,100316.22
2022-09-11T22:59:36.866Z,100328.16
2022-09-11T23:04:38.108Z,100328.47
2022-09-11T23:09:39.362Z,100327.16
2022-09-11T23:14:40.630Z,100323.44
2022-09-11T23:19:41.917Z,100325.63
2022-09-11T23:24:43.145Z,100328.78
2022-09-11T23:29:44.410Z,100333.19
2022-09-11T23:34:45.681Z,100324.09
2022-09-11T23:39:47.268Z,100321.25
2022-09-11T23:44:48.501Z,100319.56
2022-09-11T23:49:49.917Z,100312.81
2022-09-11T23:54:51.182Z,100309.81
2022-09-11T23:59:53.137Z,100301.88
